createdAt,value
2022-09-24T10:49:03.555Z,48.95
2022-09-24T10:52:14.106Z,45.25
2022-09-24T10:55:27.883Z,44.64
2022-09-24T10:58:51.033Z,44.88
2022-09-24T11:02:02.611Z,44.71
2022-09-24T11:05:12.364Z,44.64
2022-09-24T11:08:22.664Z,45.22
2022-09-24T11:11:38.217Z,43.18
2022-09-24T11:14:49.869Z,45.10
2022-09-24T11:18:04.189Z,42.89
2022-09-24T11:21:17.183Z,46.05
2022-09-24T11:24:29.093Z,45.43
2022-09-24T11:27:45.700Z,44.89
2022-09-24T11:30:58.687Z,41.72
2022-09-24T11:34:11.028Z,46.61
2022-09-24T11:37:26.699Z,45.30
2022-09-24T11:40:38.560Z,46.07
2022-09-24T11:44:04.975Z,46.96
2022-09-24T11:47:21.457Z,47.85
2022-09-24T11:50:31.582Z,46.34
2022-09-24T11:53:41.465Z,49.04
2022-09-24T11:56:49.465Z,47.17
2022-09-24T11:59:58.034Z,47.18
2022-09-24T12:03:06.803Z,46.81
2022-09-24T12:06:14.859Z,47.35
2022-09-24T12:09:24.211Z,47.43
2022-09-24T12:12:32.380Z,46.35
2022-09-24T12:15:44.374Z,47.21
2022-09-24T12:18:57.042Z,46.44
2022-09-24T12:22:04.307Z,46.03
2022-09-24T12:25:13.692Z,47.34
2022-09-24T12:28:40.608Z,46.67
2022-09-24T12:32:07.666Z,43.64
2022-09-24T12:35:19.013Z,46.29
2022-09-24T12:38:27.757Z,46.93
2022-09-24T12:41:35.501Z,44.66
2022-09-24T12:44:44.034Z,44.94
2022-09-24T12:47:51.554Z,43.22
2022-09-24T12:50:59.235Z,43.70
2022-09-24T12:54:11.660Z,45.45
2022-09-24T12:57:24.941Z,46.07
2022-09-24T13:00:36.958Z,43.49
2022-09-24T13:03:46.906Z,44.83
2022-09-24T13:06:53.121Z,45.34
2022-09-24T13:09:58.189Z,44.43
2022-09-24T13:13:16.797Z,43.52
2022-09-24T13:16:22.915Z,45.24
2022-09-24T13:19:35.497Z,43.48
2022-09-24T13:22:41.149Z,44.83
2022-09-24T13:25:55.853Z,41.21
2022-09-24T13:29:03.330Z,41.21
2022-09-24T13:32:14.680Z,39.53
2022-09-24T13:35:22.249Z,43.80
2022-09-24T13:38:30.425Z,40.70
2022-09-24T13:41:42.172Z,42.88
2022-09-24T13:44:50.368Z,43.83
2022-09-24T13:47:57.055Z,40.32
2022-09-24T13:51:03.337Z,41.86
2022-09-24T13:54:14.343Z,39.87
2022-09-24T13:57:24.747Z,39.62
2022-09-24T14:00:32.446Z,42.05
2022-09-24T14:03:38.753Z,41.35
2022-09-24T14:06:46.080Z,43.41
2022-09-24T14:09:52.021Z,42.79
2022-09-24T14:13:08.069Z,42.54
2022-09-24T14:16:17.873Z,44.28
2022-09-24T14:19:23.754Z,43.26
2022-09-24T14:22:31.053Z,44.38
2022-09-24T14:25:39.832Z,43.24
2022-09-24T14:28:45.098Z,44.05
2022-09-24T14:31:54.308Z,42.89
2022-09-24T14:35:00.609Z,44.85
2022-09-24T14:38:09.014Z,44.37
2022-09-24T14:41:16.884Z,43.61
2022-09-24T14:44:23.576Z,45.74
2022-09-24T14:47:31.205Z,45.06
2022-09-24T14:50:39.137Z,46.98
2022-09-24T14:53:44.202Z,46.27
2022-09-24T14:56:49.722Z,47.63
2022-09-24T14:59:55.017Z,49.59
2022-09-24T15:03:03.617Z,49.76
2022-09-24T15:06:15.909Z,46.70
2022-09-24T15:09:24.088Z,52.57
2022-09-24T15:12:31.851Z,50.25
2022-09-24T15:15:37.112Z,51.77
2022-09-24T15:18:43.860Z,53.38
2022-09-24T15:21:49.755Z,55.54
2022-09-24T15:25:00.257Z,54.62
2022-09-24T15:28:06.627Z,58.84
2022-09-24T15:31:11.873Z,61.00
2022-09-24T15:34:20.285Z,61.16
2022-09-24T15:37:26.550Z,62.72
2022-09-24T15:40:33.869Z,61.89
2022-09-24T15:43:38.884Z,62.00
2022-09-24T15:46:44.336Z,63.75
2022-09-24T15:49:51.514Z,64.47
2022-09-24T15:52:59.110Z,66.82
2022-09-24T15:56:04.790Z,68.13
2022-09-24T15:59:13.123Z,67.37
2022-09-24T16:02:19.280Z,67.07
2022-09-24T16:05:26.863Z,67.53
2022-09-24T16:08:32.201Z,68.26
2022-09-24T16:11:37.497Z,68.60
2022-09-24T16:14:42.945Z,69.06
2022-09-24T16:17:49.956Z,69.62
2022-09-24T16:20:56.598Z,71.41
2022-09-24T16:24:03.249Z,72.18
2022-09-24T16:27:08.465Z,71.60
2022-09-24T16:30:13.608Z,72.85
2022-09-24T16:33:18.786Z,73.02
2022-09-24T16:36:25.425Z,74.06
2022-09-24T16:39:30.669Z,73.84
2022-09-24T16:42:35.867Z,74.62
2022-09-24T16:45:40.769Z,73.15
2022-09-24T16:48:45.684Z,74.50
2022-09-24T16:51:52.576Z,71.58
2022-09-24T16:54:58.321Z,71.76
2022-09-24T16:58:03.341Z,72.54
2022-09-24T17:01:09.880Z,72.78
2022-09-24T17:04:15.084Z,72.84
2022-09-24T17:07:21.728Z,73.47
2022-09-24T17:10:26.131Z,74.20
2022-09-24T17:13:31.311Z,73.33
2022-09-24T17:16:36.531Z,71.88
2022-09-24T17:19:41.689Z,71.77
2022-09-24T17:22:48.596Z,73.68
2022-09-24T17:26:01.615Z,73.55
2022-09-24T17:29:06.731Z,73.20
2022-09-24T17:32:12.113Z,71.52
2022-09-24T17:35:17.384Z,72.25
2022-09-24T17:38:23.951Z,72.17
2022-09-24T17:41:30.271Z,74.57
2022-09-24T17:44:35.574Z,70.62
2022-09-24T17:48:00.455Z,70.74
2022-09-24T17:51:06.553Z,71.01
2022-09-24T17:54:14.376Z,71.38
2022-09-24T17:57:19.438Z,72.38
2022-09-24T18:00:24.613Z,72.14
2022-09-24T18:03:29.593Z,70.93
2022-09-24T18:06:37.504Z,71.18
2022-09-24T18:09:43.987Z,70.45
2022-09-24T18:12:49.436Z,71.63
2022-09-24T18:15:54.807Z,70.36
2022-09-24T18:19:01.044Z,71.25
2022-09-24T18:22:10.409Z,70.93
2022-09-24T18:25:18.537Z,70.94
2022-09-24T18:28:23.951Z,70.96
2022-09-24T18:31:30.169Z,70.50
2022-09-24T18:34:35.395Z,70.84
2022-09-24T18:37:40.731Z,70.86
2022-09-24T18:40:47.391Z,69.51
2022-09-24T18:43:53.637Z,71.78
2022-09-24T18:46:59.066Z,72.80
2022-09-24T18:50:04.262Z,72.78
2022-09-24T18:53:09.499Z,73.21
2022-09-24T18:56:16.037Z,75.19
2022-09-24T18:59:21.386Z,72.25
2022-09-24T19:02:26.521Z,71.59
2022-09-24T19:05:32.180Z,71.61
2022-09-24T19:08:37.855Z,72.93
2022-09-24T19:11:45.560Z,72.27
2022-09-24T19:14:54.321Z,71.40
2022-09-24T19:18:00.353Z,72.96
2022-09-24T19:21:06.891Z,71.75
2022-09-24T19:24:12.304Z,72.19
2022-09-24T19:27:18.706Z,71.84
2022-09-24T19:30:24.399Z,70.94
2022-09-24T19:33:29.659Z,71.39
2022-09-24T19:36:43.790Z,71.16
2022-09-24T19:39:49.509Z,72.23
2022-09-24T19:42:56.222Z,72.46
2022-09-24T19:46:02.565Z,71.94
2022-09-24T19:49:07.960Z,73.27
2022-09-24T19:52:13.042Z,73.42
2022-09-24T19:55:18.278Z,74.41
2022-09-24T19:58:25.292Z,71.84
2022-09-24T20:01:31.644Z,71.57
2022-09-24T20:04:37.098Z,70.69
2022-09-24T20:07:42.321Z,70.77
2022-09-24T20:10:47.821Z,71.70
2022-09-24T20:13:56.234Z,73.43
2022-09-24T20:17:01.362Z,74.45
2022-09-24T20:20:07.225Z,73.74
2022-09-24T20:23:13.168Z,74.30
2022-09-24T20:26:36.131Z,74.39
2022-09-24T20:29:43.236Z,74.83
2022-09-24T20:32:48.680Z,74.60
2022-09-24T20:35:54.666Z,75.85
2022-09-24T20:39:00.217Z,75.40
2022-09-24T20:42:06.323Z,75.95
2022-09-24T20:45:13.104Z,76.33
2022-09-24T20:48:18.636Z,77.23
2022-09-24T20:51:24.154Z,77.85
2022-09-24T20:54:29.596Z,79.20
2022-09-24T20:57:34.705Z,79.51
2022-09-24T21:00:48.631Z,83.25
2022-09-24T21:03:53.956Z,84.38
2022-09-24T21:06:59.628Z,83.31
2022-09-24T21:10:05.000Z,81.94
2022-09-24T21:13:10.273Z,82.74
2022-09-24T21:16:18.306Z,82.29
2022-09-24T21:19:24.437Z,81.71
2022-09-24T21:22:29.723Z,81.55
2022-09-24T21:25:53.536Z,83.61
2022-09-24T21:29:01.060Z,84.45
2022-09-24T21:32:07.680Z,85.15
2022-09-24T21:35:12.856Z,87.31
2022-09-24T21:38:19.916Z,87.65
2022-09-24T21:41:26.631Z,86.84
2022-09-24T21:44:34.227Z,86.60
2022-09-24T21:47:41.175Z,88.55
2022-09-24T21:50:46.368Z,89.18
2022-09-24T21:53:52.632Z,89.32
2022-09-24T21:56:57.879Z,89.34
2022-09-24T22:00:10.004Z,94.97
2022-09-24T22:03:20.486Z,96.79
2022-09-24T22:06:27.191Z,98.58
2022-09-24T22:09:32.605Z,100.00
2022-09-24T22:12:38.005Z,100.00
2022-09-24T22:15:43.692Z,100.00
2022-09-24T22:18:50.536Z,100.00
2022-09-24T22:21:55.965Z,100.00
2022-09-24T22:25:01.043Z,100.00
2022-09-24T22:28:06.248Z,100.00
2022-09-24T22:31:12.513Z,100.00
2022-09-24T22:34:36.863Z,100.00
2022-09-24T22:37:42.034Z,100.00
2022-09-24T22:40:47.934Z,100.00
2022-09-24T22:43:53.787Z,100.00
2022-09-24T22:46:59.256Z,100.00
2022-09-24T22:50:06.296Z,100.00
2022-09-24T22:53:11.537Z,100.00
2022-09-24T22:56:17.905Z,100.00
2022-09-24T22:59:22.900Z,100.00
2022-09-24T23:02:28.198Z,100.00
2022-09-24T23:05:35.073Z,100.00
2022-09-24T23:08:41.202Z,100.00
2022-09-24T23:11:46.425Z,100.00
2022-09-24T23:14:52.513Z,100.00
2022-09-24T23:17:57.836Z,100.00
2022-09-24T23:21:06.416Z,100.00
2022-09-24T23:24:14.490Z,100.00
2022-09-24T23:27:20.341Z,100.00
2022-09-24T23:30:26.275Z,100.00
2022-09-24T23:33:33.233Z,100.00
2022-09-24T23:36:39.963Z,100.00
2022-09-24T23:39:45.329Z,100.00
2022-09-24T23:42:50.761Z,100.00
2022-09-24T23:45:56.092Z,100.00
2022-09-24T23:49:01.775Z,100.00
2022-09-24T23:52:08.445Z,100.00
2022-09-24T23:55:13.864Z,100.00
2022-09-24T23:58:20.651Z,100.00
